»·PEaware :: N105MS KVNY-KSBA

N105MS :: KVNY-KSBA

FLIGHT INFORMATION

Flight Status: Arrived
Operator: Privately registered:
United States
More flights under this callsign
Pilot: Mike T. (22952)
Aircraft: CESSNA 172 SKYHAWK
(C172)
More flights by this aircraft type
Origin: KVNY Van Nuys
United States
Destination: KSBA Santa Barbara Mun
United States
More flights between these airports :: More routes between these airports
Route: +CANOG3 FIM V186 DEANO V27 KWANG
File this flight plan on PilotEdge
Remarks:
Altitude:
(Current/Filed)
6,000ft
Speed:
(Current/Filed)
100kts
Departed: 18-Oct-20 08:37 AM
Arrived: 18-Oct-20 09:31 AM
Distance/Time
Traveled:
68nm/0:54
Distance/Time
To Go:
Arrived

Flight Plot

Page will automatically refresh every two minutes.

Flight plan parsing failed; only flown route is shown


Map Options




Map Legend


Flown Route
Filed Route
Departure Airport
Arrival Airport
Navaid (VOR, NDB)
Fix

Horizontal Profiles

Position Reports

Time Latitude Longitude Heading Altitude Ground
Speed
18-Oct-20 08:10 34.217837 -118.498545 256 807ft 0kts
18-Oct-20 08:11 34.217837 -118.498545 256 807ft 0kts
18-Oct-20 08:12 34.217837 -118.498545 256 807ft 0kts
18-Oct-20 08:13 34.217837 -118.498545 256 807ft 0kts
18-Oct-20 08:14 34.217837 -118.498545 256 807ft 0kts
18-Oct-20 08:15 34.217837 -118.498545 256 807ft 0kts
18-Oct-20 08:16 34.217837 -118.498545 256 807ft 0kts
18-Oct-20 08:17 34.217837 -118.498545 256 807ft 0kts
18-Oct-20 08:18 34.217837 -118.498545 256 807ft 0kts
18-Oct-20 08:19 34.217837 -118.498545 256 807ft 0kts
18-Oct-20 08:20 34.217837 -118.498545 256 807ft 0kts
18-Oct-20 08:21 34.217837 -118.498545 256 807ft 0kts
18-Oct-20 08:22 34.217837 -118.498545 256 807ft 0kts
18-Oct-20 08:23 34.217837 -118.498545 256 807ft 0kts
18-Oct-20 08:24 34.217837 -118.498545 256 807ft 0kts
18-Oct-20 08:25 34.217837 -118.498545 256 807ft 0kts
18-Oct-20 08:26 34.217837 -118.498545 256 807ft 0kts
18-Oct-20 08:27 34.217837 -118.498545 256 807ft 0kts
18-Oct-20 08:28 34.217837 -118.498545 256 807ft 0kts
18-Oct-20 08:29 34.217837 -118.498545 256 807ft 0kts
18-Oct-20 08:31 34.217837 -118.498545 256 807ft 0kts
18-Oct-20 08:32 34.217837 -118.498545 256 807ft 0kts
18-Oct-20 08:33 34.217680 -118.498759 202 807ft 7kts
18-Oct-20 08:34 34.216887 -118.497104 42 804ft 13kts
18-Oct-20 08:35 34.216800 -118.492743 97 799ft 12kts
18-Oct-20 08:36 34.218641 -118.492164 41 802ft 0kts
18-Oct-20 08:37 34.216123 -118.491044 175 797ft 67kts
18-Oct-20 08:38 34.188966 -118.488787 175 1731ft 123kts
18-Oct-20 08:39 34.161698 -118.493798 222 3271ft 97kts
18-Oct-20 08:40 34.155443 -118.522928 271 4500ft 103kts
18-Oct-20 08:41 34.159993 -118.560220 280 5421ft 117kts
18-Oct-20 08:42 34.166441 -118.600047 281 6057ft 135kts
18-Oct-20 08:43 34.173387 -118.642473 280 6058ft 123kts
18-Oct-20 08:44 34.179815 -118.682820 280 6055ft 121kts
18-Oct-20 08:45 34.186312 -118.723629 280 5979ft 122kts
18-Oct-20 08:45 34.191610 -118.757081 280 5979ft 121kts
18-Oct-20 08:47 34.198983 -118.803598 281 5980ft 120kts
18-Oct-20 08:47 34.204207 -118.836611 279 5980ft 119kts
18-Oct-20 08:49 34.211529 -118.883134 278 5979ft 122kts
18-Oct-20 08:50 34.217995 -118.924207 280 5985ft 126kts
18-Oct-20 08:50 34.223503 -118.959226 281 5976ft 127kts
18-Oct-20 08:52 34.231363 -119.009381 281 5979ft 131kts
18-Oct-20 08:52 34.237038 -119.045678 282 5979ft 132kts
18-Oct-20 08:54 34.244952 -119.096440 282 5978ft 131kts
18-Oct-20 08:54 34.250666 -119.132702 282 5979ft 131kts
18-Oct-20 08:55 34.257639 -119.177087 282 5681ft 137kts
18-Oct-20 08:56 34.264714 -119.222346 282 5175ft 136kts
18-Oct-20 08:57 34.271626 -119.267543 282 4666ft 136kts
18-Oct-20 08:58 34.278474 -119.312571 282 4151ft 136kts
18-Oct-20 08:59 34.284226 -119.356599 272 3977ft 126kts
18-Oct-20 09:00 34.284207 -119.398176 272 3979ft 122kts
18-Oct-20 09:01 34.284200 -119.439085 272 3979ft 121kts
18-Oct-20 09:02 34.284257 -119.479776 272 3979ft 120kts
18-Oct-20 09:03 34.284350 -119.520221 272 3979ft 120kts
18-Oct-20 09:04 34.284556 -119.560815 271 3980ft 120kts
18-Oct-20 09:05 34.286411 -119.600669 272 3979ft 116kts
18-Oct-20 09:06 34.287684 -119.639264 272 3979ft 114kts
18-Oct-20 09:07 34.288530 -119.677546 272 3979ft 114kts
18-Oct-20 09:08 34.289383 -119.716174 272 3979ft 115kts
18-Oct-20 09:09 34.290364 -119.757091 272 3981ft 128kts
18-Oct-20 09:10 34.291460 -119.800719 272 3980ft 130kts
18-Oct-20 09:11 34.297313 -119.844078 282 3979ft 130kts
18-Oct-20 09:12 34.304749 -119.887059 282 3979ft 130kts
18-Oct-20 09:13 34.312228 -119.930201 282 3979ft 130kts
18-Oct-20 09:14 34.319715 -119.973347 282 3979ft 131kts
18-Oct-20 09:15 34.327188 -120.016358 282 3979ft 131kts
18-Oct-20 09:16 34.334691 -120.059505 282 3979ft 130kts
18-Oct-20 09:17 34.342173 -120.102504 282 3979ft 131kts
18-Oct-20 09:18 34.354286 -120.142417 337 3979ft 130kts
18-Oct-20 09:19 34.388868 -120.143371 44 3979ft 130kts
18-Oct-20 09:20 34.410245 -120.110856 52 3511ft 108kts
18-Oct-20 09:21 34.422380 -120.081576 89 2902ft 99kts
18-Oct-20 09:22 34.423122 -120.045948 89 2313ft 108kts
18-Oct-20 09:23 34.423961 -120.010480 89 2079ft 102kts
18-Oct-20 09:24 34.424732 -119.977400 89 1979ft 95kts
18-Oct-20 09:25 34.425430 -119.946550 89 1504ft 89kts
18-Oct-20 09:26 34.426120 -119.916022 89 1029ft 91kts
18-Oct-20 09:27 34.426810 -119.885088 89 541ft 92kts
18-Oct-20 09:28 34.427432 -119.856074 88 77ft 66kts
18-Oct-20 09:29 34.427769 -119.842484 90 13ft 44kts
18-Oct-20 09:30 34.425586 -119.837433 126 14ft 0kts

Navigation Log

Ident Type
Flight plan parsing failed, navigation log unavailable